MRLN8 LICZ-LICZ
Flight info
| Callsign | MRLN8 |
|---|---|
| Flight time | 1h 28m |
| Altitude | 33000 |
| Route | PIMOR DCT INROF DCT TISAL STAY1/0030 DCT NELDA |
| Aircraft | L2J/M-SDE2E3FGHIRWXY/LB1 |
Departure
| Time | 2026-04-15 19:42 |
|---|---|
| Airport | Sigonella Navy Air Base (LICZ) |
Arrival
| Time | 2026-04-15 21:10 |
|---|---|
| Airport | Sigonella Navy Air Base (LICZ) |
| Time | Latitude | Longitude | Altitude | Speed | Heading |
|---|---|---|---|---|---|
| 2026-04-15 19:21 | 37.40740 | 14.91548 | 84 ft | 0 kts | 92° |
| 2026-04-15 19:35 | 37.40737 | 14.91569 | 84 ft | 7 kts | 104° |
| 2026-04-15 19:35 | 37.40682 | 14.91569 | 85 ft | 12 kts | 242° |
| 2026-04-15 19:36 | 37.40688 | 14.91487 | 84 ft | 6 kts | 278° |
| 2026-04-15 19:36 | 37.40694 | 14.91436 | 84 ft | 6 kts | 277° |
| 2026-04-15 19:36 | 37.40699 | 14.91384 | 84 ft | 6 kts | 278° |
| 2026-04-15 19:36 | 37.40710 | 14.91290 | 86 ft | 9 kts | 278° |
| 2026-04-15 19:37 | 37.40719 | 14.91202 | 87 ft | 10 kts | 277° |
| 2026-04-15 19:37 | 37.40730 | 14.91116 | 86 ft | 10 kts | 279° |
| 2026-04-15 19:37 | 37.40740 | 14.91031 | 87 ft | 10 kts | 278° |
| 2026-04-15 19:37 | 37.40723 | 14.90959 | 88 ft | 9 kts | 211° |
| 2026-04-15 19:38 | 37.40684 | 14.90947 | 89 ft | 0 kts | 188° |
| 2026-04-15 19:39 | 37.40679 | 14.90946 | 88 ft | 3 kts | 189° |
| 2026-04-15 19:39 | 37.40623 | 14.90936 | 87 ft | 12 kts | 188° |
| 2026-04-15 19:39 | 37.40588 | 14.90929 | 89 ft | 9 kts | 188° |
| 2026-04-15 19:39 | 37.40511 | 14.90958 | 85 ft | 13 kts | 106° |
| 2026-04-15 19:40 | 37.40507 | 14.90985 | 86 ft | 0 kts | 99° |
| 2026-04-15 19:40 | 37.40505 | 14.90997 | 85 ft | 8 kts | 99° |
| 2026-04-15 19:41 | 37.40471 | 14.91286 | 85 ft | 65 kts | 98° |
| 2026-04-15 19:41 | 37.40376 | 14.92092 | 82 ft | 119 kts | 98° |
| 2026-04-15 19:41 | 37.40230 | 14.93310 | 115 ft | 158 kts | 99° |
| 2026-04-15 19:41 | 37.40082 | 14.94702 | 652 ft | 162 kts | 96° |
| 2026-04-15 19:42 | 37.39943 | 14.96152 | 1133 ft | 173 kts | 97° |
| 2026-04-15 19:42 | 37.39760 | 14.97659 | 1769 ft | 172 kts | 97° |
| 2026-04-15 19:42 | 37.39578 | 14.99133 | 2324 ft | 178 kts | 97° |
| 2026-04-15 19:42 | 37.39368 | 15.00766 | 2559 ft | 199 kts | 97° |
| 2026-04-15 19:43 | 37.39127 | 15.02503 | 2965 ft | 204 kts | 100° |
| 2026-04-15 19:43 | 37.38812 | 15.04338 | 3142 ft | 228 kts | 101° |
| 2026-04-15 19:43 | 37.38439 | 15.06380 | 3419 ft | 244 kts | 102° |
| 2026-04-15 19:43 | 37.38047 | 15.08433 | 4284 ft | 236 kts | 102° |
| 2026-04-15 19:44 | 37.37668 | 15.10436 | 4962 ft | 239 kts | 102° |
| 2026-04-15 19:44 | 37.37290 | 15.12525 | 5486 ft | 244 kts | 102° |
| 2026-04-15 19:44 | 37.36925 | 15.14593 | 6223 ft | 244 kts | 102° |
| 2026-04-15 19:44 | 37.36549 | 15.16727 | 6663 ft | 254 kts | 102° |
| 2026-04-15 19:45 | 37.36163 | 15.18891 | 7423 ft | 249 kts | 103° |
| 2026-04-15 19:45 | 37.35909 | 15.20293 | 7951 ft | 249 kts | 103° |
| 2026-04-15 19:45 | 37.35508 | 15.22476 | 8354 ft | 263 kts | 103° |
| 2026-04-15 19:45 | 37.35119 | 15.24619 | 9067 ft | 259 kts | 103° |
| 2026-04-15 19:46 | 37.34738 | 15.26743 | 10212 ft | 240 kts | 104° |
| 2026-04-15 19:46 | 37.34373 | 15.28767 | 10968 ft | 239 kts | 104° |
| 2026-04-15 19:46 | 37.33984 | 15.30886 | 11180 ft | 261 kts | 104° |
| 2026-04-15 19:46 | 37.33555 | 15.33194 | 11511 ft | 275 kts | 105° |
| 2026-04-15 19:47 | 37.33123 | 15.35482 | 12559 ft | 259 kts | 105° |
| 2026-04-15 19:47 | 37.32721 | 15.37657 | 13426 ft | 258 kts | 105° |
| 2026-04-15 19:47 | 37.32308 | 15.39929 | 13760 ft | 275 kts | 105° |
| 2026-04-15 19:47 | 37.31884 | 15.42306 | 14337 ft | 278 kts | 104° |
| 2026-04-15 19:48 | 37.31471 | 15.44636 | 15221 ft | 269 kts | 104° |
| 2026-04-15 19:48 | 37.31058 | 15.46939 | 15848 ft | 274 kts | 105° |
| 2026-04-15 19:48 | 37.30623 | 15.49347 | 16129 ft | 292 kts | 104° |
| 2026-04-15 19:48 | 37.30193 | 15.51905 | 16517 ft | 303 kts | 104° |
| 2026-04-15 19:49 | 37.29753 | 15.54415 | 17466 ft | 293 kts | 105° |
| 2026-04-15 19:49 | 37.29308 | 15.56877 | 18375 ft | 287 kts | 105° |
| 2026-04-15 19:49 | 37.28845 | 15.59348 | 18831 ft | 295 kts | 106° |
| 2026-04-15 19:49 | 37.28355 | 15.61918 | 19110 ft | 308 kts | 105° |
| 2026-04-15 19:50 | 37.27877 | 15.64529 | 19800 ft | 305 kts | 105° |
| 2026-04-15 19:50 | 37.27411 | 15.67127 | 20460 ft | 305 kts | 105° |
| 2026-04-15 19:50 | 37.26943 | 15.69738 | 20958 ft | 310 kts | 105° |
| 2026-04-15 19:50 | 37.26455 | 15.72408 | 21369 ft | 317 kts | 106° |
| 2026-04-15 19:51 | 37.25955 | 15.75076 | 22262 ft | 302 kts | 106° |
| 2026-04-15 19:51 | 37.25480 | 15.77609 | 23212 ft | 296 kts | 106° |
| 2026-04-15 19:51 | 37.25002 | 15.80177 | 23356 ft | 312 kts | 106° |
| 2026-04-15 19:51 | 37.24483 | 15.82932 | 23262 ft | 334 kts | 106° |
| 2026-04-15 19:52 | 37.23946 | 15.85727 | 23846 ft | 330 kts | 106° |
| 2026-04-15 19:52 | 37.23445 | 15.88442 | 24921 ft | 308 kts | 106° |
| 2026-04-15 19:52 | 37.22982 | 15.91019 | 25668 ft | 302 kts | 107° |
| 2026-04-15 19:52 | 37.22496 | 15.93656 | 25697 ft | 319 kts | 107° |
| 2026-04-15 19:53 | 37.21983 | 15.96432 | 25732 ft | 334 kts | 107° |
| 2026-04-15 19:53 | 37.21445 | 15.99328 | 25756 ft | 348 kts | 107° |
| 2026-04-15 19:53 | 37.20899 | 16.02279 | 26167 ft | 343 kts | 107° |
| 2026-04-15 19:53 | 37.20369 | 16.05161 | 27155 ft | 328 kts | 108° |
| 2026-04-15 19:54 | 37.19851 | 16.07970 | 27861 ft | 323 kts | 109° |
| 2026-04-15 19:54 | 37.19337 | 16.10719 | 28248 ft | 326 kts | 109° |
| 2026-04-15 19:54 | 37.18813 | 16.13502 | 28605 ft | 329 kts | 109° |
| 2026-04-15 19:54 | 37.18286 | 16.16300 | 28998 ft | 331 kts | 109° |
| 2026-04-15 19:55 | 37.17756 | 16.19109 | 29430 ft | 332 kts | 109° |
| 2026-04-15 19:55 | 37.17230 | 16.21901 | 29826 ft | 333 kts | 109° |
| 2026-04-15 19:55 | 37.16688 | 16.24772 | 30180 ft | 335 kts | 109° |
| 2026-04-15 19:55 | 37.16154 | 16.27590 | 30458 ft | 337 kts | 109° |
| 2026-04-15 19:56 | 37.15610 | 16.30462 | 30721 ft | 340 kts | 109° |
| 2026-04-15 19:56 | 37.15060 | 16.33365 | 31008 ft | 343 kts | 109° |
| 2026-04-15 19:56 | 37.14505 | 16.36287 | 31286 ft | 345 kts | 109° |
| 2026-04-15 19:56 | 37.13949 | 16.39215 | 31553 ft | 347 kts | 110° |
| 2026-04-15 19:57 | 37.13387 | 16.42167 | 31816 ft | 350 kts | 110° |
| 2026-04-15 19:57 | 37.12819 | 16.45144 | 32076 ft | 352 kts | 110° |
| 2026-04-15 19:57 | 37.12249 | 16.48135 | 32335 ft | 354 kts | 110° |
| 2026-04-15 19:57 | 37.11673 | 16.51148 | 32591 ft | 356 kts | 110° |
| 2026-04-15 19:58 | 37.11094 | 16.54173 | 32837 ft | 358 kts | 110° |
| 2026-04-15 19:58 | 37.10509 | 16.57223 | 32943 ft | 364 kts | 110° |
| 2026-04-15 19:58 | 37.09296 | 16.63522 | 32951 ft | 377 kts | 110° |
| 2026-04-15 19:59 | 37.08045 | 16.70024 | 32957 ft | 391 kts | 109° |
| 2026-04-15 19:59 | 37.06742 | 16.76754 | 32954 ft | 403 kts | 110° |
| 2026-04-15 20:00 | 37.04557 | 16.83176 | 32949 ft | 402 kts | 128° |
| 2026-04-15 20:00 | 37.01282 | 16.88940 | 32952 ft | 411 kts | 130° |
| 2026-04-15 20:01 | 36.97888 | 16.94752 | 32953 ft | 420 kts | 130° |
| 2026-04-15 20:01 | 36.94414 | 17.00753 | 32952 ft | 429 kts | 130° |
| 2026-04-15 20:02 | 36.90906 | 17.06851 | 32938 ft | 433 kts | 130° |
| 2026-04-15 20:02 | 36.87372 | 17.13001 | 32940 ft | 433 kts | 130° |
| 2026-04-15 20:03 | 36.83857 | 17.19105 | 32956 ft | 433 kts | 130° |
| 2026-04-15 20:03 | 36.80354 | 17.25174 | 32951 ft | 433 kts | 130° |
| 2026-04-15 20:04 | 36.76829 | 17.31268 | 32950 ft | 432 kts | 130° |
| 2026-04-15 20:04 | 36.73303 | 17.37352 | 32952 ft | 432 kts | 130° |
| 2026-04-15 20:05 | 36.69783 | 17.43418 | 32934 ft | 426 kts | 130° |
| 2026-04-15 20:05 | 36.68086 | 17.46346 | 32936 ft | 409 kts | 130° |
| 2026-04-15 20:05 | 36.66448 | 17.49172 | 32932 ft | 394 kts | 130° |
| 2026-04-15 20:06 | 36.64872 | 17.51885 | 32936 ft | 380 kts | 131° |
| 2026-04-15 20:06 | 36.63349 | 17.54501 | 32937 ft | 366 kts | 131° |
| 2026-04-15 20:06 | 36.61880 | 17.57021 | 32931 ft | 353 kts | 131° |
| 2026-04-15 20:06 | 36.60481 | 17.59418 | 32946 ft | 341 kts | 131° |
| 2026-04-15 20:07 | 36.57677 | 17.64199 | 32972 ft | 345 kts | 131° |
| 2026-04-15 20:07 | 36.54811 | 17.69087 | 32971 ft | 353 kts | 131° |
| 2026-04-15 20:08 | 36.51922 | 17.74024 | 32965 ft | 353 kts | 131° |
| 2026-04-15 20:08 | 36.48896 | 17.78796 | 32940 ft | 346 kts | 144° |
| 2026-04-15 20:09 | 36.46907 | 17.80414 | 32971 ft | 340 kts | 158° |
| 2026-04-15 20:09 | 36.44694 | 17.81383 | 32972 ft | 336 kts | 169° |
| 2026-04-15 20:09 | 36.42380 | 17.81709 | 32964 ft | 335 kts | 181° |
| 2026-04-15 20:09 | 36.40071 | 17.81336 | 32954 ft | 335 kts | 194° |
| 2026-04-15 20:10 | 36.37909 | 17.80246 | 32966 ft | 338 kts | 208° |
| 2026-04-15 20:10 | 36.36027 | 17.78476 | 32962 ft | 344 kts | 221° |
| 2026-04-15 20:10 | 36.34551 | 17.76114 | 32967 ft | 351 kts | 235° |
| 2026-04-15 20:10 | 36.33603 | 17.73282 | 32960 ft | 361 kts | 250° |
| 2026-04-15 20:11 | 36.33295 | 17.70149 | 32958 ft | 372 kts | 266° |
| 2026-04-15 20:11 | 36.33658 | 17.66936 | 32975 ft | 382 kts | 279° |
| 2026-04-15 20:11 | 36.34710 | 17.63848 | 32965 ft | 394 kts | 296° |
| 2026-04-15 20:11 | 36.36265 | 17.61032 | 32961 ft | 398 kts | 301° |
| 2026-04-15 20:12 | 36.39589 | 17.55564 | 32960 ft | 400 kts | 301° |
| 2026-04-15 20:12 | 36.42887 | 17.49986 | 32965 ft | 401 kts | 300° |
| 2026-04-15 20:13 | 36.44617 | 17.47267 | 32943 ft | 408 kts | 313° |
| 2026-04-15 20:13 | 36.46975 | 17.45238 | 32979 ft | 415 kts | 333° |
| 2026-04-15 20:13 | 36.49743 | 17.44192 | 32950 ft | 419 kts | 353° |
| 2026-04-15 20:13 | 36.52647 | 17.44231 | 32966 ft | 418 kts | 12° |
| 2026-04-15 20:14 | 36.55384 | 17.45360 | 32955 ft | 413 kts | 32° |
| 2026-04-15 20:14 | 36.57664 | 17.47445 | 32961 ft | 403 kts | 52° |
| 2026-04-15 20:14 | 36.59287 | 17.50215 | 32952 ft | 392 kts | 70° |
| 2026-04-15 20:14 | 36.60155 | 17.53356 | 32968 ft | 379 kts | 88° |
| 2026-04-15 20:15 | 36.60274 | 17.56569 | 32963 ft | 368 kts | 103° |
| 2026-04-15 20:15 | 36.59789 | 17.59652 | 32972 ft | 360 kts | 115° |
| 2026-04-15 20:15 | 36.58750 | 17.62446 | 32964 ft | 351 kts | 129° |
| 2026-04-15 20:15 | 36.57379 | 17.64896 | 32970 ft | 350 kts | 131° |
| 2026-04-15 20:16 | 36.54443 | 17.69760 | 32961 ft | 353 kts | 132° |
| 2026-04-15 20:16 | 36.51515 | 17.74702 | 32960 ft | 355 kts | 131° |
| 2026-04-15 20:17 | 36.48353 | 17.79344 | 32970 ft | 346 kts | 149° |
| 2026-04-15 20:17 | 36.46255 | 17.80757 | 32957 ft | 342 kts | 162° |
| 2026-04-15 20:17 | 36.43967 | 17.81471 | 32968 ft | 338 kts | 175° |
| 2026-04-15 20:18 | 36.41622 | 17.81477 | 32954 ft | 338 kts | 188° |
| 2026-04-15 20:18 | 36.39370 | 17.80605 | 32984 ft | 345 kts | 206° |
| 2026-04-15 20:18 | 36.37386 | 17.78844 | 32971 ft | 359 kts | 221° |
| 2026-04-15 20:18 | 36.35838 | 17.76345 | 32978 ft | 375 kts | 237° |
| 2026-04-15 20:19 | 36.34943 | 17.73239 | 32975 ft | 392 kts | 254° |
| 2026-04-15 20:19 | 36.34812 | 17.69788 | 32974 ft | 410 kts | 269° |
| 2026-04-15 20:19 | 36.35692 | 17.62648 | 32980 ft | 428 kts | 276° |
| 2026-04-15 20:20 | 36.36968 | 17.55302 | 32971 ft | 441 kts | 277° |
| 2026-04-15 20:20 | 36.38316 | 17.47768 | 32972 ft | 453 kts | 278° |
| 2026-04-15 20:21 | 36.39331 | 17.44018 | 32964 ft | 465 kts | 288° |
| 2026-04-15 20:21 | 36.40628 | 17.40307 | 32970 ft | 471 kts | 289° |
| 2026-04-15 20:21 | 36.43349 | 17.32879 | 32967 ft | 480 kts | 289° |
| 2026-04-15 20:22 | 36.46118 | 17.25259 | 32950 ft | 481 kts | 289° |
| 2026-04-15 20:22 | 36.48805 | 17.17705 | 32952 ft | 481 kts | 288° |
| 2026-04-15 20:23 | 36.51483 | 17.10086 | 32961 ft | 481 kts | 288° |
| 2026-04-15 20:23 | 36.54153 | 17.02462 | 32955 ft | 481 kts | 288° |
| 2026-04-15 20:24 | 36.57696 | 16.92318 | 32956 ft | 480 kts | 288° |
| 2026-04-15 20:25 | 36.60355 | 16.84690 | 32955 ft | 480 kts | 288° |
| 2026-04-15 20:25 | 36.63009 | 16.77057 | 32949 ft | 480 kts | 288° |
| 2026-04-15 20:26 | 36.65653 | 16.69431 | 32949 ft | 480 kts | 288° |
| 2026-04-15 20:26 | 36.68300 | 16.61781 | 32952 ft | 480 kts | 288° |
| 2026-04-15 20:27 | 36.70939 | 16.54131 | 32947 ft | 480 kts | 288° |
| 2026-04-15 20:27 | 36.73577 | 16.46467 | 32952 ft | 481 kts | 289° |
| 2026-04-15 20:28 | 36.76211 | 16.38793 | 32952 ft | 482 kts | 289° |
| 2026-04-15 20:28 | 36.78852 | 16.31073 | 32258 ft | 489 kts | 289° |
| 2026-04-15 20:28 | 36.80186 | 16.27169 | 31572 ft | 487 kts | 289° |
| 2026-04-15 20:29 | 36.81513 | 16.23284 | 30833 ft | 488 kts | 289° |
| 2026-04-15 20:29 | 36.82838 | 16.19400 | 30200 ft | 486 kts | 289° |
| 2026-04-15 20:29 | 36.84162 | 16.15512 | 29315 ft | 487 kts | 289° |
| 2026-04-15 20:29 | 36.85472 | 16.11658 | 28439 ft | 487 kts | 289° |
| 2026-04-15 20:30 | 36.86799 | 16.07747 | 27394 ft | 491 kts | 290° |
| 2026-04-15 20:30 | 36.88129 | 16.03821 | 26456 ft | 492 kts | 290° |
| 2026-04-15 20:30 | 36.89464 | 15.99880 | 25574 ft | 491 kts | 290° |
| 2026-04-15 20:30 | 36.90786 | 15.95973 | 24920 ft | 485 kts | 290° |
| 2026-04-15 20:31 | 36.92094 | 15.92106 | 24248 ft | 480 kts | 291° |
| 2026-04-15 20:31 | 36.93399 | 15.88240 | 23581 ft | 474 kts | 291° |
| 2026-04-15 20:31 | 36.94659 | 15.84503 | 22803 ft | 470 kts | 291° |
| 2026-04-15 20:31 | 36.95918 | 15.80760 | 22102 ft | 464 kts | 291° |
| 2026-04-15 20:32 | 36.97159 | 15.77068 | 21432 ft | 458 kts | 291° |
| 2026-04-15 20:32 | 36.98382 | 15.73424 | 20764 ft | 452 kts | 291° |
| 2026-04-15 20:32 | 36.99593 | 15.69811 | 20112 ft | 447 kts | 291° |
| 2026-04-15 20:32 | 37.00787 | 15.66246 | 19465 ft | 442 kts | 291° |
| 2026-04-15 20:33 | 37.01966 | 15.62717 | 18836 ft | 438 kts | 291° |
| 2026-04-15 20:33 | 37.03137 | 15.59210 | 18197 ft | 434 kts | 291° |
| 2026-04-15 20:33 | 37.04293 | 15.55745 | 17480 ft | 430 kts | 291° |
| 2026-04-15 20:33 | 37.05438 | 15.52309 | 16811 ft | 425 kts | 291° |
| 2026-04-15 20:34 | 37.06568 | 15.48911 | 16171 ft | 420 kts | 291° |
| 2026-04-15 20:34 | 37.07689 | 15.45540 | 15538 ft | 416 kts | 291° |
| 2026-04-15 20:35 | 37.12193 | 15.31951 | 12952 ft | 401 kts | 291° |
| 2026-04-15 20:35 | 37.13254 | 15.28739 | 12327 ft | 398 kts | 291° |
| 2026-04-15 20:35 | 37.14308 | 15.25546 | 11716 ft | 394 kts | 291° |
| 2026-04-15 20:36 | 37.15351 | 15.22384 | 11217 ft | 389 kts | 291° |
| 2026-04-15 20:36 | 37.16362 | 15.19317 | 11080 ft | 373 kts | 291° |
| 2026-04-15 20:36 | 37.17336 | 15.16361 | 10916 ft | 361 kts | 291° |
| 2026-04-15 20:36 | 37.18282 | 15.13482 | 10772 ft | 355 kts | 291° |
| 2026-04-15 20:37 | 37.19213 | 15.10648 | 10618 ft | 347 kts | 291° |
| 2026-04-15 20:37 | 37.20116 | 15.07873 | 10470 ft | 339 kts | 289° |
| 2026-04-15 20:37 | 37.20802 | 15.05059 | 10228 ft | 335 kts | 283° |
| 2026-04-15 20:37 | 37.21332 | 15.02212 | 9993 ft | 334 kts | 281° |
| 2026-04-15 20:38 | 37.21821 | 14.99368 | 9746 ft | 333 kts | 281° |
| 2026-04-15 20:38 | 37.22311 | 14.96525 | 9493 ft | 338 kts | 281° |
| 2026-04-15 20:38 | 37.22841 | 14.93510 | 9267 ft | 368 kts | 282° |
| 2026-04-15 20:38 | 37.23416 | 14.90309 | 9019 ft | 383 kts | 282° |
| 2026-04-15 20:39 | 37.24011 | 14.87055 | 8757 ft | 384 kts | 282° |
| 2026-04-15 20:39 | 37.24614 | 14.83789 | 8493 ft | 383 kts | 283° |
| 2026-04-15 20:39 | 37.25218 | 14.80534 | 8234 ft | 383 kts | 283° |
| 2026-04-15 20:39 | 37.25821 | 14.77286 | 7991 ft | 382 kts | 283° |
| 2026-04-15 20:40 | 37.26423 | 14.74036 | 7727 ft | 381 kts | 283° |
| 2026-04-15 20:40 | 37.27023 | 14.70797 | 7484 ft | 380 kts | 283° |
| 2026-04-15 20:40 | 37.27619 | 14.67575 | 7231 ft | 375 kts | 283° |
| 2026-04-15 20:40 | 37.28193 | 14.64461 | 6980 ft | 356 kts | 283° |
| 2026-04-15 20:41 | 37.28734 | 14.61518 | 6712 ft | 336 kts | 283° |
| 2026-04-15 20:41 | 37.29249 | 14.58722 | 6459 ft | 320 kts | 283° |
| 2026-04-15 20:41 | 37.29736 | 14.56064 | 6201 ft | 306 kts | 283° |
| 2026-04-15 20:41 | 37.30204 | 14.53512 | 5919 ft | 294 kts | 284° |
| 2026-04-15 20:42 | 37.30642 | 14.51116 | 5875 ft | 274 kts | 284° |
| 2026-04-15 20:42 | 37.31185 | 14.48927 | 5891 ft | 254 kts | 302° |
| 2026-04-15 20:42 | 37.32323 | 14.47367 | 5921 ft | 237 kts | 328° |
| 2026-04-15 20:42 | 37.33786 | 14.46493 | 5922 ft | 232 kts | 349° |
| 2026-04-15 20:43 | 37.37520 | 14.45882 | 5938 ft | 231 kts | 357° |
| 2026-04-15 20:43 | 37.39127 | 14.45757 | 5897 ft | 231 kts | 10° |
| 2026-04-15 20:44 | 37.40601 | 14.46490 | 5633 ft | 229 kts | 42° |
| 2026-04-15 20:44 | 37.41510 | 14.48075 | 5379 ft | 224 kts | 71° |
| 2026-04-15 20:44 | 37.41831 | 14.49953 | 5154 ft | 221 kts | 83° |
| 2026-04-15 20:44 | 37.41994 | 14.51878 | 4904 ft | 221 kts | 84° |
| 2026-04-15 20:45 | 37.42145 | 14.53778 | 4807 ft | 212 kts | 84° |
| 2026-04-15 20:45 | 37.42293 | 14.55585 | 4838 ft | 205 kts | 84° |
| 2026-04-15 20:45 | 37.42438 | 14.57354 | 4842 ft | 202 kts | 84° |
| 2026-04-15 20:45 | 37.42585 | 14.59077 | 4822 ft | 194 kts | 84° |
| 2026-04-15 20:46 | 37.42731 | 14.60750 | 4654 ft | 192 kts | 83° |
| 2026-04-15 20:46 | 37.42875 | 14.62406 | 4447 ft | 189 kts | 83° |
| 2026-04-15 20:46 | 37.43020 | 14.64048 | 4231 ft | 189 kts | 84° |
| 2026-04-15 20:46 | 37.43166 | 14.65714 | 4015 ft | 188 kts | 84° |
| 2026-04-15 20:47 | 37.43134 | 14.67339 | 3759 ft | 185 kts | 95° |
| 2026-04-15 20:47 | 37.42987 | 14.68925 | 3508 ft | 181 kts | 95° |
| 2026-04-15 20:47 | 37.42834 | 14.70445 | 3276 ft | 173 kts | 96° |
| 2026-04-15 20:47 | 37.42695 | 14.71879 | 3051 ft | 155 kts | 95° |
| 2026-04-15 20:48 | 37.42577 | 14.73138 | 2845 ft | 135 kts | 95° |
| 2026-04-15 20:48 | 37.42464 | 14.74240 | 2611 ft | 121 kts | 96° |
| 2026-04-15 20:48 | 37.42342 | 14.75282 | 2457 ft | 121 kts | 96° |
| 2026-04-15 20:48 | 37.42217 | 14.76350 | 2298 ft | 125 kts | 96° |
| 2026-04-15 20:49 | 37.42092 | 14.77432 | 2104 ft | 123 kts | 96° |
| 2026-04-15 20:49 | 37.41969 | 14.78472 | 1945 ft | 120 kts | 96° |
| 2026-04-15 20:49 | 37.41843 | 14.79547 | 1807 ft | 127 kts | 97° |
| 2026-04-15 20:49 | 37.41715 | 14.80642 | 1631 ft | 126 kts | 97° |
| 2026-04-15 20:50 | 37.41589 | 14.81725 | 1442 ft | 123 kts | 97° |
| 2026-04-15 20:50 | 37.41456 | 14.82874 | 1308 ft | 141 kts | 97° |
| 2026-04-15 20:50 | 37.41312 | 14.84106 | 1090 ft | 143 kts | 97° |
| 2026-04-15 20:50 | 37.41168 | 14.85338 | 910 ft | 142 kts | 98° |
| 2026-04-15 20:51 | 37.41026 | 14.86554 | 721 ft | 141 kts | 99° |
| 2026-04-15 20:51 | 37.40883 | 14.87769 | 562 ft | 141 kts | 99° |
| 2026-04-15 20:51 | 37.40738 | 14.89028 | 625 ft | 146 kts | 97° |
| 2026-04-15 20:51 | 37.40602 | 14.90266 | 1150 ft | 152 kts | 97° |
| 2026-04-15 20:52 | 37.40414 | 14.91732 | 1479 ft | 179 kts | 98° |
| 2026-04-15 20:52 | 37.40197 | 14.93304 | 2328 ft | 182 kts | 98° |
| 2026-04-15 20:52 | 37.39981 | 14.94885 | 3159 ft | 182 kts | 98° |
| 2026-04-15 20:52 | 37.39771 | 14.96428 | 4032 ft | 175 kts | 97° |
| 2026-04-15 20:53 | 37.39566 | 14.97946 | 4677 ft | 183 kts | 97° |
| 2026-04-15 20:53 | 37.39348 | 14.99578 | 4986 ft | 202 kts | 98° |
| 2026-04-15 20:53 | 37.39078 | 15.01438 | 5016 ft | 229 kts | 99° |
| 2026-04-15 20:53 | 37.38753 | 15.03451 | 4999 ft | 238 kts | 100° |
| 2026-04-15 20:54 | 37.38379 | 15.05478 | 4975 ft | 238 kts | 110° |
| 2026-04-15 20:54 | 37.37357 | 15.07106 | 4989 ft | 244 kts | 142° |
| 2026-04-15 20:54 | 37.35726 | 15.07957 | 5018 ft | 272 kts | 167° |
| 2026-04-15 20:54 | 37.33710 | 15.07907 | 5018 ft | 310 kts | 191° |
| 2026-04-15 20:55 | 37.31662 | 15.06784 | 4991 ft | 331 kts | 216° |
| 2026-04-15 20:55 | 37.30144 | 15.04623 | 4995 ft | 335 kts | 242° |
| 2026-04-15 20:55 | 37.29553 | 15.01789 | 5016 ft | 347 kts | 269° |
| 2026-04-15 20:55 | 37.29762 | 14.98686 | 5012 ft | 364 kts | 279° |
| 2026-04-15 20:56 | 37.30181 | 14.95535 | 4994 ft | 368 kts | 279° |
| 2026-04-15 20:56 | 37.30543 | 14.92364 | 4985 ft | 366 kts | 278° |
| 2026-04-15 20:56 | 37.30774 | 14.90218 | 4991 ft | 366 kts | 278° |
| 2026-04-15 20:56 | 37.30991 | 14.87037 | 4995 ft | 366 kts | 273° |
| 2026-04-15 20:57 | 37.31046 | 14.83843 | 4999 ft | 366 kts | 271° |
| 2026-04-15 20:57 | 37.31055 | 14.80679 | 4989 ft | 367 kts | 270° |
| 2026-04-15 20:57 | 37.31063 | 14.77435 | 5000 ft | 367 kts | 271° |
| 2026-04-15 20:57 | 37.31083 | 14.74265 | 4988 ft | 368 kts | 271° |
| 2026-04-15 20:58 | 37.31115 | 14.71057 | 4991 ft | 368 kts | 271° |
| 2026-04-15 20:58 | 37.31155 | 14.67838 | 4998 ft | 368 kts | 271° |
| 2026-04-15 20:58 | 37.31199 | 14.64623 | 5012 ft | 368 kts | 271° |
| 2026-04-15 20:58 | 37.31244 | 14.61400 | 5007 ft | 368 kts | 271° |
| 2026-04-15 20:59 | 37.31287 | 14.58244 | 4995 ft | 353 kts | 271° |
| 2026-04-15 20:59 | 37.31326 | 14.55246 | 4994 ft | 334 kts | 271° |
| 2026-04-15 20:59 | 37.31380 | 14.52398 | 4993 ft | 318 kts | 276° |
| 2026-04-15 20:59 | 37.31988 | 14.49792 | 5016 ft | 306 kts | 301° |
| 2026-04-15 21:00 | 37.33289 | 14.47823 | 5012 ft | 281 kts | 324° |
| 2026-04-15 21:00 | 37.34884 | 14.46600 | 4997 ft | 258 kts | 340° |
| 2026-04-15 21:00 | 37.36525 | 14.46030 | 5007 ft | 235 kts | 354° |
| 2026-04-15 21:00 | 37.38052 | 14.45782 | 5019 ft | 213 kts | 357° |
| 2026-04-15 21:01 | 37.39454 | 14.45651 | 5006 ft | 192 kts | 10° |
| 2026-04-15 21:01 | 37.40654 | 14.46221 | 5014 ft | 180 kts | 41° |
| 2026-04-15 21:01 | 37.41403 | 14.47406 | 4998 ft | 170 kts | 69° |
| 2026-04-15 21:01 | 37.41635 | 14.48822 | 5032 ft | 162 kts | 84° |
| 2026-04-15 21:02 | 37.41773 | 14.50290 | 5026 ft | 173 kts | 83° |
| 2026-04-15 21:02 | 37.41917 | 14.51804 | 5028 ft | 178 kts | 83° |
| 2026-04-15 21:02 | 37.42060 | 14.53356 | 4797 ft | 184 kts | 83° |
| 2026-04-15 21:02 | 37.42202 | 14.54929 | 4581 ft | 176 kts | 83° |
| 2026-04-15 21:03 | 37.42335 | 14.56390 | 4499 ft | 160 kts | 83° |
| 2026-04-15 21:03 | 37.42463 | 14.57798 | 4281 ft | 164 kts | 83° |
| 2026-04-15 21:03 | 37.42589 | 14.59211 | 4085 ft | 161 kts | 83° |
| 2026-04-15 21:03 | 37.42709 | 14.60565 | 4012 ft | 149 kts | 83° |
| 2026-04-15 21:04 | 37.42821 | 14.61826 | 4020 ft | 152 kts | 83° |
| 2026-04-15 21:04 | 37.42949 | 14.63269 | 4017 ft | 171 kts | 83° |
| 2026-04-15 21:04 | 37.43076 | 14.64713 | 4004 ft | 158 kts | 83° |
| 2026-04-15 21:04 | 37.43194 | 14.66048 | 4008 ft | 153 kts | 83° |
| 2026-04-15 21:05 | 37.43084 | 14.67334 | 4002 ft | 146 kts | 104° |
| 2026-04-15 21:05 | 37.42877 | 14.68528 | 3979 ft | 136 kts | 97° |
| 2026-04-15 21:05 | 37.42746 | 14.69711 | 3656 ft | 144 kts | 97° |
| 2026-04-15 21:05 | 37.42576 | 14.70951 | 3130 ft | 144 kts | 98° |
| 2026-04-15 21:06 | 37.42423 | 14.72168 | 2820 ft | 138 kts | 97° |
| 2026-04-15 21:06 | 37.42284 | 14.73342 | 2811 ft | 136 kts | 96° |
| 2026-04-15 21:06 | 37.42126 | 14.74607 | 2913 ft | 158 kts | 97° |
| 2026-04-15 21:06 | 37.41948 | 14.75927 | 2786 ft | 145 kts | 97° |
| 2026-04-15 21:07 | 37.41803 | 14.77158 | 2585 ft | 152 kts | 96° |
| 2026-04-15 21:07 | 37.41661 | 14.78600 | 2367 ft | 176 kts | 95° |
| 2026-04-15 21:07 | 37.41531 | 14.80093 | 2019 ft | 167 kts | 96° |
| 2026-04-15 21:07 | 37.41382 | 14.81457 | 1796 ft | 149 kts | 96° |
| 2026-04-15 21:08 | 37.41251 | 14.82630 | 1562 ft | 129 kts | 96° |
| 2026-04-15 21:08 | 37.41126 | 14.83737 | 1186 ft | 124 kts | 97° |
| 2026-04-15 21:08 | 37.41012 | 14.84765 | 928 ft | 119 kts | 96° |
| 2026-04-15 21:08 | 37.40907 | 14.85819 | 776 ft | 122 kts | 97° |
| 2026-04-15 21:09 | 37.40792 | 14.86875 | 682 ft | 118 kts | 98° |
| 2026-04-15 21:09 | 37.40665 | 14.87906 | 503 ft | 118 kts | 102° |
| 2026-04-15 21:09 | 37.40527 | 14.88954 | 513 ft | 126 kts | 97° |
| 2026-04-15 21:09 | 37.40422 | 14.90019 | 322 ft | 123 kts | 99° |
| 2026-04-15 21:10 | 37.40306 | 14.91027 | 110 ft | 121 kts | 99° |
| 2026-04-15 21:10 | 37.40186 | 14.92019 | 82 ft | 108 kts | 97° |
| 2026-04-15 21:10 | 37.40125 | 14.92695 | 78 ft | 16 kts | 57° |
| 2026-04-15 21:10 | 37.40221 | 14.92705 | 71 ft | 13 kts | 354° |
| 2026-04-15 21:11 | 37.40268 | 14.92705 | 75 ft | 7 kts | 7° |
| 2026-04-15 21:11 | 37.40324 | 14.92712 | 72 ft | 10 kts | 1° |
| 2026-04-15 21:11 | 37.40399 | 14.92696 | 75 ft | 10 kts | 345° |
| 2026-04-15 21:11 | 37.40439 | 14.92692 | 76 ft | 9 kts | 22° |
| 2026-04-15 21:12 | 37.40473 | 14.92766 | 73 ft | 13 kts | 68° |
| 2026-04-15 21:12 | 37.40521 | 14.92916 | 73 ft | 21 kts | 68° |
| 2026-04-15 21:12 | 37.40526 | 14.93022 | 70 ft | 11 kts | 122° |
| 2026-04-15 21:12 | 37.40554 | 14.93093 | 72 ft | 5 kts | 30° |
| 2026-04-15 21:13 | 37.40577 | 14.93108 | 71 ft | 0 kts | 14° |
| 2026-04-15 21:13 | 37.40590 | 14.93093 | 69 ft | 9 kts | 301° |
| 2026-04-15 21:13 | 37.40602 | 14.93065 | 74 ft | 0 kts | 297° |